createdAt,value
2022-11-03T00:01:39.523Z,14.60
2022-11-03T00:04:10.298Z,14.10
2022-11-03T00:06:39.708Z,16.80
2022-11-03T00:09:10.185Z,17.30
2022-11-03T00:11:40.213Z,16.70
2022-11-03T00:14:10.353Z,15.10
2022-11-03T00:16:40.003Z,13.50
2022-11-03T00:19:10.040Z,15.60
2022-11-03T00:21:38.927Z,11.90
2022-11-03T00:24:08.753Z,15.40
2022-11-03T00:26:37.878Z,15.30
2022-11-03T00:29:10.564Z,13.90
2022-11-03T00:31:40.969Z,14.70
2022-11-03T00:34:10.597Z,16.60
2022-11-03T00:36:41.582Z,13.00
2022-11-03T00:39:10.867Z,14.20
2022-11-03T00:41:39.901Z,12.20
2022-11-03T00:44:10.147Z,16.20
2022-11-03T00:46:38.834Z,15.40
2022-11-03T00:49:07.595Z,14.20
2022-11-03T00:51:36.290Z,11.50
2022-11-03T00:54:06.826Z,13.40
2022-11-03T00:56:37.264Z,12.70
2022-11-03T00:59:07.700Z,13.50
2022-11-03T01:01:45.224Z,10.60
2022-11-03T01:04:33.473Z,17.00
2022-11-03T01:07:02.815Z,11.50
2022-11-03T01:09:35.303Z,11.70
2022-11-03T01:12:07.077Z,10.60
2022-11-03T01:14:38.367Z,11.70
2022-11-03T01:17:07.854Z,12.10
2022-11-03T01:19:36.683Z,11.60
2022-11-03T01:22:09.536Z,12.60
2022-11-03T01:24:40.749Z,13.90
2022-11-03T01:27:09.831Z,12.60
2022-11-03T01:29:38.496Z,12.10
2022-11-03T01:32:08.505Z,10.40
2022-11-03T01:34:37.308Z,10.90
2022-11-03T01:37:05.997Z,12.40
2022-11-03T01:39:35.143Z,11.90
2022-11-03T01:42:04.029Z,12.70
2022-11-03T01:44:35.209Z,10.50
2022-11-03T01:47:12.751Z,9.80
2022-11-03T01:49:47.001Z,8.70
2022-11-03T01:52:20.366Z,6.60
2022-11-03T01:54:52.039Z,10.30
2022-11-03T01:57:25.680Z,10.20
2022-11-03T01:59:58.107Z,10.20
2022-11-03T02:02:27.705Z,8.00
2022-11-03T02:05:00.349Z,10.10
2022-11-03T02:07:34.184Z,11.60
2022-11-03T02:10:03.532Z,11.80
2022-11-03T02:12:33.551Z,7.50
2022-11-03T02:15:06.564Z,9.50
2022-11-03T02:17:36.486Z,8.80
2022-11-03T02:20:08.324Z,11.80
2022-11-03T02:23:17.827Z,9.50
2022-11-03T02:25:48.468Z,9.70
2022-11-03T02:28:19.736Z,8.70
2022-11-03T02:30:54.698Z,10.60
2022-11-03T02:33:36.043Z,8.80
2022-11-03T02:36:12.075Z,11.70
2022-11-03T02:38:53.491Z,9.30
2022-11-03T02:41:24.462Z,12.20
2022-11-03T02:43:55.776Z,10.70
2022-11-03T02:46:26.193Z,10.90
2022-11-03T02:48:56.737Z,11.40
2022-11-03T02:51:25.414Z,11.30
2022-11-03T02:54:03.257Z,10.50
2022-11-03T02:56:37.132Z,12.90
2022-11-03T02:59:10.262Z,10.20
2022-11-03T03:01:47.424Z,15.30
2022-11-03T03:04:20.036Z,8.40
2022-11-03T03:06:53.855Z,11.80
2022-11-03T03:09:28.805Z,11.10
2022-11-03T03:12:01.280Z,11.20
2022-11-03T03:14:32.367Z,10.60
2022-11-03T03:17:05.440Z,9.70
2022-11-03T03:19:44.333Z,10.00
2022-11-03T03:22:21.605Z,11.00
2022-11-03T03:24:56.459Z,17.00
2022-11-03T03:27:28.135Z,11.50
2022-11-03T03:30:01.396Z,12.20
2022-11-03T03:32:35.832Z,10.00
2022-11-03T03:35:09.002Z,10.50
2022-11-03T03:37:41.243Z,11.60
2022-11-03T03:40:16.320Z,11.30
2022-11-03T03:42:47.489Z,10.10
2022-11-03T03:45:17.554Z,11.00
2022-11-03T03:47:47.015Z,12.50
2022-11-03T03:50:16.328Z,11.50
2022-11-03T03:52:44.986Z,11.20
2022-11-03T03:55:19.737Z,13.80
2022-11-03T04:00:17.262Z,11.30
2022-11-03T04:02:46.022Z,12.30
2022-11-03T04:05:14.882Z,11.60
2022-11-03T04:07:49.684Z,12.30
2022-11-03T04:13:05.494Z,10.60
2022-11-03T04:15:52.639Z,12.00
2022-11-03T04:18:41.166Z,14.90
2022-11-03T04:21:31.282Z,13.80
2022-11-03T04:24:00.479Z,14.10
2022-11-03T04:26:29.477Z,9.80
2022-11-03T04:29:00.312Z,16.00
2022-11-03T04:31:38.134Z,13.10
2022-11-03T04:34:15.789Z,12.50
2022-11-03T04:36:46.456Z,14.50
2022-11-03T04:39:19.156Z,18.30
2022-11-03T04:41:47.875Z,11.10
2022-11-03T04:44:17.195Z,15.50
2022-11-03T04:46:46.804Z,12.10
2022-11-03T04:49:22.229Z,13.30
2022-11-03T04:51:51.398Z,11.50
2022-11-03T04:54:23.510Z,10.50
2022-11-03T04:56:52.511Z,13.50
2022-11-03T04:59:21.192Z,13.60
2022-11-03T05:01:50.173Z,15.00
2022-11-03T05:04:19.359Z,12.20
2022-11-03T05:06:51.530Z,15.50
2022-11-03T05:09:25.185Z,19.70
2022-11-03T05:11:53.932Z,23.90
2022-11-03T05:14:24.864Z,19.30
2022-11-03T05:16:55.589Z,18.50
2022-11-03T05:19:27.416Z,14.40
2022-11-03T05:21:58.775Z,16.30
2022-11-03T05:24:28.230Z,16.40
2022-11-03T05:26:59.128Z,11.30
2022-11-03T05:29:33.313Z,11.10
2022-11-03T05:32:02.058Z,14.00
2022-11-03T05:34:37.723Z,16.10
2022-11-03T05:37:26.708Z,18.50
2022-11-03T05:39:57.907Z,19.70
2022-11-03T05:42:38.004Z,11.80
2022-11-03T05:45:16.050Z,12.00
2022-11-03T05:47:44.829Z,12.70
2022-11-03T05:50:19.390Z,15.80
2022-11-03T05:52:50.022Z,14.10
2022-11-03T05:55:27.777Z,16.00
2022-11-03T05:57:59.076Z,20.00
2022-11-03T06:00:30.617Z,18.10
2022-11-03T06:03:00.357Z,17.10
2022-11-03T06:05:31.235Z,12.80
2022-11-03T06:08:03.865Z,15.10
2022-11-03T06:10:37.625Z,17.60
2022-11-03T06:13:14.592Z,20.30
2022-11-03T06:15:46.195Z,14.50
2022-11-03T06:18:19.737Z,12.30
2022-11-03T06:20:52.354Z,13.90
2022-11-03T06:23:23.373Z,16.80
2022-11-03T06:25:54.909Z,18.10
2022-11-03T06:28:27.113Z,15.10
2022-11-03T06:30:56.830Z,14.60
2022-11-03T06:33:28.190Z,17.00
2022-11-03T06:36:02.594Z,13.70
2022-11-03T06:38:34.233Z,17.80
2022-11-03T06:41:03.091Z,16.20
2022-11-03T06:43:40.154Z,15.70
2022-11-03T06:46:19.678Z,13.60
2022-11-03T06:48:48.588Z,14.60
2022-11-03T06:51:21.250Z,16.20
2022-11-03T06:53:53.412Z,16.30
2022-11-03T06:56:25.296Z,13.30
2022-11-03T06:58:56.449Z,16.50
2022-11-03T07:01:30.085Z,20.70
2022-11-03T07:04:04.133Z,16.00
2022-11-03T07:06:36.872Z,16.60
2022-11-03T07:09:09.428Z,17.10
2022-11-03T07:11:44.037Z,18.10
2022-11-03T07:14:15.367Z,18.30
2022-11-03T07:16:47.733Z,18.20
2022-11-03T07:19:21.792Z,20.70
2022-11-03T07:21:53.232Z,24.70
2022-11-03T07:24:24.659Z,27.20
2022-11-03T07:26:59.301Z,20.90
2022-11-03T07:29:29.621Z,19.90
2022-11-03T07:32:00.623Z,18.80
2022-11-03T07:34:32.890Z,21.30
2022-11-03T07:37:02.722Z,21.80
2022-11-03T07:39:37.661Z,19.90
2022-11-03T07:42:14.031Z,19.60
2022-11-03T07:44:43.063Z,15.40
2022-11-03T07:47:14.389Z,15.40
2022-11-03T07:49:43.767Z,15.70
2022-11-03T07:52:14.988Z,14.60
2022-11-03T07:54:44.558Z,14.00
2022-11-03T07:57:21.566Z,13.80
2022-11-03T07:59:52.219Z,14.50
2022-11-03T08:02:31.154Z,15.10
2022-11-03T08:04:59.856Z,14.70
2022-11-03T08:07:29.833Z,12.40
2022-11-03T08:09:58.838Z,13.20
2022-11-03T08:12:27.684Z,13.00
2022-11-03T08:14:56.607Z,10.50
2022-11-03T08:17:25.863Z,14.90
2022-11-03T08:19:54.657Z,14.90
2022-11-03T08:22:25.514Z,11.30
2022-11-03T08:24:54.317Z,14.20
2022-11-03T08:27:23.042Z,13.30
2022-11-03T08:29:52.159Z,11.80
2022-11-03T08:32:20.809Z,13.70
2022-11-03T08:34:49.656Z,11.70
2022-11-03T08:37:18.350Z,13.60
2022-11-03T08:39:47.165Z,13.90
2022-11-03T08:42:16.111Z,11.50
2022-11-03T08:44:44.753Z,14.20
2022-11-03T08:47:13.522Z,11.60
2022-11-03T08:49:42.276Z,13.60
2022-11-03T08:52:11.038Z,12.90
2022-11-03T08:54:39.815Z,12.30
2022-11-03T08:57:08.647Z,12.10
2022-11-03T08:59:38.370Z,11.60
2022-11-03T09:02:08.123Z,11.50
2022-11-03T09:04:36.947Z,10.40
2022-11-03T09:07:05.834Z,10.20
2022-11-03T09:12:23.713Z,11.00
2022-11-03T09:14:52.704Z,8.30
2022-11-03T09:17:21.526Z,10.30
2022-11-03T09:19:50.222Z,10.70
2022-11-03T09:22:19.379Z,10.10
2022-11-03T09:24:48.133Z,9.10
2022-11-03T09:27:16.975Z,9.50
2022-11-03T09:30:11.222Z,8.60
2022-11-03T09:32:35.147Z,7.70
2022-11-03T09:35:04.402Z,8.10
2022-11-03T09:37:33.235Z,6.30
2022-11-03T09:40:02.122Z,9.50
2022-11-03T09:42:34.004Z,4.50
2022-11-03T09:45:04.279Z,10.40
2022-11-03T09:47:36.192Z,4.00
2022-11-03T09:50:08.258Z,5.40
2022-11-03T09:52:38.054Z,5.90
2022-11-03T09:55:15.869Z,6.40
2022-11-03T09:57:45.917Z,4.40
2022-11-03T10:00:25.380Z,4.10
2022-11-03T10:02:55.625Z,4.50
2022-11-03T10:05:26.832Z,6.60
2022-11-03T10:07:59.477Z,4.70
2022-11-03T10:10:29.879Z,3.90
2022-11-03T10:12:59.737Z,4.90
2022-11-03T10:15:28.946Z,7.30
2022-11-03T10:17:58.139Z,6.10
2022-11-03T10:20:29.259Z,4.00
2022-11-03T10:22:58.061Z,6.70
2022-11-03T10:25:37.464Z,7.10
2022-11-03T10:28:18.222Z,5.70
2022-11-03T10:33:42.260Z,5.40
2022-11-03T10:36:25.962Z,5.00
2022-11-03T10:38:55.178Z,7.60
2022-11-03T10:41:25.428Z,5.60
2022-11-03T10:44:07.797Z,2.90
2022-11-03T10:46:50.383Z,5.50
2022-11-03T10:49:21.312Z,5.10
2022-11-03T10:51:52.492Z,5.70
2022-11-03T10:54:23.442Z,3.90
2022-11-03T10:56:53.159Z,4.40
2022-11-03T10:59:24.567Z,6.40
2022-11-03T11:01:53.533Z,4.20
2022-11-03T11:04:22.815Z,4.60
2022-11-03T11:06:52.330Z,5.20
2022-11-03T11:09:25.085Z,4.50
2022-11-03T11:12:15.768Z,6.00
2022-11-03T11:14:55.332Z,5.90
2022-11-03T11:17:56.593Z,4.40
2022-11-03T11:20:34.233Z,6.50
2022-11-03T11:23:52.022Z,4.30
2022-11-03T11:26:40.897Z,6.20
2022-11-03T11:29:35.991Z,6.20
2022-11-03T11:32:47.240Z,3.90
2022-11-03T11:35:40.196Z,5.70
2022-11-03T11:38:44.566Z,6.30
2022-11-03T11:41:13.793Z,6.30
2022-11-03T11:43:42.614Z,3.90
2022-11-03T11:46:39.445Z,4.30
2022-11-03T11:49:18.712Z,5.80
2022-11-03T11:51:47.781Z,4.50
2022-11-03T11:54:20.562Z,3.40
2022-11-03T11:56:51.070Z,4.00
2022-11-03T11:59:25.849Z,3.90
2022-11-03T12:01:57.211Z,4.60
2022-11-03T12:04:30.788Z,3.60
2022-11-03T12:06:59.550Z,4.80
2022-11-03T12:09:28.907Z,7.00
2022-11-03T12:12:02.094Z,6.70
2022-11-03T12:14:38.398Z,8.10
2022-11-03T12:17:37.007Z,6.70
2022-11-03T12:20:35.994Z,5.40
2022-11-03T12:23:04.807Z,6.40
2022-11-03T12:25:39.844Z,6.30
2022-11-03T12:28:09.241Z,5.40
2022-11-03T12:30:40.010Z,7.60
2022-11-03T12:33:10.227Z,4.70
2022-11-03T12:35:39.452Z,5.30
2022-11-03T12:38:08.171Z,4.60
2022-11-03T12:40:37.042Z,8.80
2022-11-03T12:43:14.674Z,5.00
2022-11-03T12:45:46.399Z,5.30
2022-11-03T12:48:15.241Z,4.70
2022-11-03T12:50:44.102Z,4.40
2022-11-03T12:53:12.886Z,6.90
2022-11-03T12:55:44.591Z,4.30
2022-11-03T12:58:13.920Z,4.90
2022-11-03T13:00:46.325Z,5.50
2022-11-03T13:03:18.500Z,4.30
2022-11-03T13:05:48.159Z,5.00
2022-11-03T13:10:47.051Z,5.80
2022-11-03T13:13:15.803Z,5.50
2022-11-03T13:15:44.853Z,7.90
2022-11-03T13:18:14.406Z,7.80
2022-11-03T13:20:44.625Z,9.10
2022-11-03T13:23:16.179Z,7.90
2022-11-03T13:25:47.558Z,6.40
2022-11-03T13:28:16.331Z,8.30
2022-11-03T13:30:45.043Z,7.50
2022-11-03T13:33:13.884Z,18.00
2022-11-03T13:35:42.805Z,9.50
2022-11-03T13:38:11.830Z,7.70
2022-11-03T13:40:56.354Z,12.60
2022-11-03T13:43:26.397Z,7.20
2022-11-03T13:45:58.208Z,5.80
2022-11-03T13:51:17.283Z,8.00
2022-11-03T14:04:46.212Z,4.80
2022-11-03T14:07:15.117Z,5.10
2022-11-03T14:09:43.875Z,5.50
2022-11-03T14:12:30.933Z,5.40
2022-11-03T14:15:00.317Z,7.00
2022-11-03T14:17:29.017Z,7.80
2022-11-03T14:20:01.050Z,7.60
2022-11-03T14:22:33.134Z,9.90
2022-11-03T14:25:02.419Z,5.90
2022-11-03T14:27:31.335Z,6.30
2022-11-03T14:30:00.195Z,15.90
2022-11-03T14:32:29.025Z,13.20
2022-11-03T14:34:57.735Z,13.60
2022-11-03T14:37:27.080Z,23.60
2022-11-03T14:39:56.091Z,31.80
2022-11-03T14:42:25.058Z,24.10
2022-11-03T14:44:54.654Z,21.00
2022-11-03T14:47:25.198Z,29.50
2022-11-03T14:49:54.058Z,16.50
2022-11-03T14:52:22.867Z,13.50
2022-11-03T14:54:51.881Z,19.30
2022-11-03T14:57:22.463Z,16.50
2022-11-03T14:59:53.592Z,51.40
2022-11-03T15:02:23.034Z,26.20
2022-11-03T15:04:51.932Z,19.20
2022-11-03T15:07:20.965Z,19.00
2022-11-03T15:09:49.866Z,18.60
2022-11-03T15:12:18.644Z,27.20
2022-11-03T15:14:47.754Z,19.10
2022-11-03T15:17:16.821Z,109.50
2022-11-03T15:19:45.845Z,24.80
2022-11-03T15:22:14.856Z,18.70
2022-11-03T15:27:33.125Z,21.40
2022-11-03T15:30:01.917Z,26.10
2022-11-03T15:32:36.170Z,27.70
2022-11-03T15:35:06.884Z,12.20
2022-11-03T15:37:35.751Z,11.80
2022-11-03T15:40:06.216Z,16.60
2022-11-03T15:42:35.847Z,10.40
2022-11-03T15:45:05.886Z,11.60
2022-11-03T15:47:35.015Z,14.80
2022-11-03T15:50:03.853Z,18.50
2022-11-03T15:52:33.127Z,16.60
2022-11-03T15:55:02.414Z,27.50
2022-11-03T15:57:31.499Z,26.40
2022-11-03T16:00:00.352Z,24.80
2022-11-03T16:02:41.483Z,29.90
2022-11-03T16:05:11.500Z,32.40
2022-11-03T16:07:40.326Z,37.10
2022-11-03T16:10:10.163Z,33.60
2022-11-03T16:12:39.126Z,28.00
2022-11-03T16:15:10.516Z,24.30
2022-11-03T16:17:45.253Z,27.40
2022-11-03T16:20:14.545Z,23.50
2022-11-03T16:22:43.658Z,38.60
2022-11-03T16:25:16.596Z,56.20
2022-11-03T16:27:47.969Z,49.80
2022-11-03T16:30:16.962Z,44.30
2022-11-03T16:32:45.989Z,45.30
2022-11-03T16:35:15.218Z,44.50
2022-11-03T16:37:44.253Z,36.50
2022-11-03T16:40:19.039Z,35.00
2022-11-03T16:42:48.390Z,30.40
2022-11-03T16:45:19.151Z,22.20
2022-11-03T16:47:49.616Z,22.50
2022-11-03T16:50:19.837Z,17.20
2022-11-03T16:52:49.793Z,15.30
2022-11-03T16:55:19.954Z,12.90
2022-11-03T16:57:49.439Z,14.80
2022-11-03T17:00:20.083Z,13.70
2022-11-03T17:02:49.104Z,10.30
2022-11-03T17:05:20.993Z,12.50
2022-11-03T17:07:53.911Z,11.90
2022-11-03T17:10:23.791Z,11.80
2022-11-03T17:12:52.591Z,11.90
2022-11-03T17:15:21.642Z,12.90
2022-11-03T17:17:51.071Z,14.10
2022-11-03T17:20:19.981Z,14.60
2022-11-03T17:22:48.824Z,14.30
2022-11-03T17:25:18.690Z,14.80
2022-11-03T17:27:49.612Z,14.50
2022-11-03T17:30:20.759Z,16.50
2022-11-03T17:32:51.534Z,17.20
2022-11-03T17:35:21.977Z,23.80
2022-11-03T17:37:52.732Z,26.90
2022-11-03T17:40:24.677Z,23.80
2022-11-03T17:42:55.175Z,20.80
2022-11-03T17:45:26.971Z,20.80
2022-11-03T17:47:55.874Z,19.30
2022-11-03T17:50:26.067Z,20.00
2022-11-03T17:52:56.115Z,20.50
2022-11-03T17:55:29.003Z,20.00
2022-11-03T17:58:04.701Z,19.00
2022-11-03T18:00:34.536Z,23.90
2022-11-03T18:03:08.049Z,24.10
2022-11-03T18:05:38.379Z,17.50
2022-11-03T18:08:11.863Z,25.60
2022-11-03T18:10:44.514Z,23.60
2022-11-03T18:13:19.434Z,21.00
2022-11-03T18:15:51.492Z,22.30
2022-11-03T18:18:25.421Z,22.00
2022-11-03T18:20:55.983Z,21.10
2022-11-03T18:23:28.239Z,20.70
2022-11-03T18:26:00.613Z,19.80
2022-11-03T18:28:31.774Z,20.50
2022-11-03T18:31:05.282Z,20.60
2022-11-03T18:33:36.596Z,21.90
2022-11-03T18:36:07.958Z,19.00
2022-11-03T18:38:40.513Z,18.80
2022-11-03T18:41:34.263Z,17.80
2022-11-03T18:44:07.887Z,18.70
2022-11-03T18:46:38.392Z,17.50
2022-11-03T18:49:08.967Z,17.50
2022-11-03T18:51:41.499Z,18.90
2022-11-03T18:54:15.136Z,17.80
2022-11-03T18:56:44.446Z,20.60
2022-11-03T18:59:22.088Z,16.20
2022-11-03T19:01:51.543Z,15.20
2022-11-03T19:04:21.081Z,18.00
2022-11-03T19:06:53.399Z,17.00
2022-11-03T19:09:25.946Z,17.50
2022-11-03T19:11:58.268Z,17.30
2022-11-03T19:14:32.202Z,21.50
2022-11-03T19:19:54.923Z,15.40
2022-11-03T19:22:25.200Z,19.70
2022-11-03T19:24:54.309Z,19.70
2022-11-03T19:27:30.156Z,20.40
2022-11-03T19:30:00.765Z,20.40
2022-11-03T19:32:36.322Z,18.00
2022-11-03T19:35:08.067Z,17.60
2022-11-03T19:37:38.114Z,18.40
2022-11-03T19:40:13.604Z,22.80
2022-11-03T19:42:44.067Z,18.60
2022-11-03T19:45:24.558Z,18.80
2022-11-03T19:50:53.410Z,18.30
2022-11-03T19:53:26.919Z,18.70
2022-11-03T19:55:58.161Z,15.60
2022-11-03T19:58:30.463Z,14.80
2022-11-03T20:01:04.266Z,20.30
2022-11-03T20:03:39.864Z,21.70
2022-11-03T20:06:15.380Z,17.50
2022-11-03T20:08:48.821Z,18.00
2022-11-03T20:11:19.672Z,16.90
2022-11-03T20:13:53.113Z,17.20
2022-11-03T20:16:23.021Z,14.80
2022-11-03T20:18:53.867Z,14.20
2022-11-03T20:21:23.683Z,15.30
2022-11-03T20:23:53.368Z,14.60
2022-11-03T20:26:25.392Z,13.90
2022-11-03T20:28:56.994Z,18.00
2022-11-03T20:31:26.658Z,17.30
2022-11-03T20:33:56.333Z,17.30
2022-11-03T20:36:26.914Z,15.40
2022-11-03T20:38:59.606Z,15.10
2022-11-03T20:41:31.826Z,14.80
2022-11-03T20:44:01.304Z,18.00
2022-11-03T20:46:33.758Z,15.60
2022-11-03T20:49:03.435Z,14.80
2022-11-03T20:51:35.551Z,12.30
2022-11-03T20:54:13.153Z,14.00
2022-11-03T20:56:48.029Z,16.50
2022-11-03T20:59:18.593Z,15.10
2022-11-03T21:01:49.387Z,16.00
2022-11-03T21:04:20.887Z,17.10
2022-11-03T21:06:50.636Z,38.80
2022-11-03T21:09:21.052Z,21.10
2022-11-03T21:11:53.482Z,22.50
2022-11-03T21:14:28.260Z,16.60
2022-11-03T21:20:01.938Z,26.00
2022-11-03T21:22:52.015Z,19.80
2022-11-03T21:25:23.856Z,16.40
2022-11-03T21:27:54.478Z,19.20
2022-11-03T21:30:24.305Z,15.10
2022-11-03T21:32:53.344Z,16.50
2022-11-03T21:35:23.144Z,15.50
2022-11-03T21:37:52.033Z,16.70
2022-11-03T21:40:21.229Z,17.80
2022-11-03T21:43:08.862Z,12.90
2022-11-03T21:45:38.303Z,16.80
2022-11-03T21:48:27.303Z,14.20
2022-11-03T21:51:02.011Z,14.30
2022-11-03T21:53:32.989Z,15.10
2022-11-03T21:56:01.933Z,14.40
2022-11-03T21:58:32.684Z,15.30
2022-11-03T22:01:04.660Z,15.90
2022-11-03T22:03:35.681Z,15.30
2022-11-03T22:06:08.579Z,18.10
2022-11-03T22:08:38.613Z,18.60
2022-11-03T22:11:23.407Z,16.40
2022-11-03T22:13:55.604Z,17.00
2022-11-03T22:16:37.419Z,18.90
2022-11-03T22:19:27.284Z,19.20
2022-11-03T22:22:14.550Z,16.10
2022-11-03T22:25:01.170Z,16.90
2022-11-03T22:27:32.329Z,19.30
2022-11-03T22:30:20.637Z,17.10
2022-11-03T22:32:53.146Z,21.40
2022-11-03T22:35:44.015Z,14.00
2022-11-03T22:38:14.652Z,16.10
2022-11-03T22:41:04.465Z,16.00
2022-11-03T22:43:51.786Z,14.00
2022-11-03T22:46:20.517Z,14.70
2022-11-03T22:48:49.328Z,15.20
2022-11-03T22:51:19.027Z,14.60
2022-11-03T22:54:05.645Z,14.00
2022-11-03T22:56:34.431Z,12.00
2022-11-03T22:59:03.315Z,13.70
2022-11-03T23:01:32.299Z,13.90
2022-11-03T23:04:01.263Z,15.80
2022-11-03T23:06:34.870Z,13.50
2022-11-03T23:09:04.173Z,11.10
2022-11-03T23:11:33.534Z,15.30
2022-11-03T23:14:04.674Z,12.70
2022-11-03T23:16:34.815Z,12.40
2022-11-03T23:19:21.743Z,12.70
2022-11-03T23:21:52.662Z,14.80
2022-11-03T23:24:44.005Z,12.50
2022-11-03T23:27:14.276Z,12.10
2022-11-03T23:29:43.072Z,12.30
2022-11-03T23:32:12.014Z,13.30
2022-11-03T23:34:41.681Z,12.10
2022-11-03T23:37:10.349Z,17.20
2022-11-03T23:39:39.061Z,14.70
2022-11-03T23:42:08.332Z,13.60
2022-11-03T23:44:51.394Z,13.20
2022-11-03T23:47:49.787Z,15.10
2022-11-03T23:50:18.771Z,15.00
2022-11-03T23:52:47.559Z,15.20
2022-11-03T23:55:16.519Z,12.50
2022-11-03T23:58:03.162Z,17.30
